Time;durP1;ratioP1;P1;durP2;ratioP2;P2;SDS_P1;SDS_P2;PMS_P1;PMS_P2;Temp;Humidity;BMP_temperature;BMP_pressure;BME280_temperature;BME280_humidity;BME280_pressure;Samples;Min_cycle;Max_cycle;Signal;HPM_P1;HPM_P2
2022/05/30 00:00:42;;;;;;;9.10;3.55;;;;;;;9.88;100.00;100279.34;6252191;23;20162;-61
2022/05/30 00:03:26;;;;;;;9.32;3.97;;;;;;;9.92;100.00;100282.88;6239225;23;20366;-61
2022/05/30 00:06:14;;;;;;;5.68;3.33;;;;;;;9.85;100.00;100275.88;6228743;23;20524;-60
2022/05/30 00:08:59;;;;;;;6.75;4.05;;;;;;;9.83;100.00;100267.03;6227960;23;20079;-63
2022/05/30 00:11:43;;;;;;;9.10;3.70;;;;;;;9.72;100.00;100261.84;6249732;23;20236;-62
2022/05/30 00:14:28;;;;;;;7.38;3.63;;;;;;;9.71;100.00;100264.50;6250339;23;20030;-61
2022/05/30 00:17:13;;;;;;;7.65;3.45;;;;;;;9.64;100.00;100265.47;6249134;23;20035;-62
2022/05/30 00:19:58;;;;;;;8.75;3.92;;;;;;;9.45;100.00;100244.44;6239644;23;20027;-61
2022/05/30 00:22:42;;;;;;;6.50;2.97;;;;;;;9.71;100.00;100283.03;6237136;23;20031;-61
2022/05/30 00:25:26;;;;;;;9.57;3.00;;;;;;;9.45;100.00;100243.53;6250757;23;20030;-62
2022/05/30 00:28:11;;;;;;;5.82;3.13;;;;;;;9.67;100.00;100289.25;6239913;23;20046;-61
2022/05/30 00:30:56;;;;;;;6.82;3.17;;;;;;;9.55;100.00;100283.16;6251247;23;20129;-60
2022/05/30 00:33:42;;;;;;;5.43;2.95;;;;;;;9.48;100.00;100268.22;6249448;23;20035;-61
2022/05/30 00:36:27;;;;;;;10.27;3.50;;;;;;;9.64;100.00;100290.16;6225468;23;20030;-63
2022/05/30 00:39:12;;;;;;;;;;;;;;;9.64;100.00;100295.44;6194872;23;20363;-63
2022/05/30 00:42:33;;;;;;;3.72;2.90;;;;;;;9.71;100.00;100293.63;6236007;23;20411;-60
2022/05/30 00:45:17;;;;;;;9.85;3.67;;;;;;;9.63;100.00;100291.06;6103445;23;20057;-61
2022/05/30 00:48:02;;;;;;;7.07;3.70;;;;;;;9.19;100.00;100241.09;6126198;23;20028;-62
2022/05/30 00:50:51;;;;;;;6.97;3.17;;;;;;;9.59;100.00;100308.72;6126357;23;20527;-62
2022/05/30 00:53:36;;;;;;;7.40;3.60;;;;;;;9.53;100.00;100292.00;6106470;23;20599;-63
2022/05/30 00:56:24;;;;;;;5.43;3.33;;;;;;;9.72;100.00;100312.16;6098276;23;20388;-60
2022/05/30 00:59:10;;;;;;;6.47;3.47;;;;;;;9.66;100.00;100322.81;6125484;23;20029;-61
2022/05/30 01:01:54;;;;;;;11.20;3.58;;;;;;;9.63;100.00;100319.28;6118626;23;20024;-60
2022/05/30 01:07:44;;;;;;;7.30;3.40;;;;;;;9.58;100.00;100319.34;6125711;23;20432;-61
2022/05/30 01:10:29;;;;;;;11.63;3.72;;;;;;;9.41;100.00;100314.16;6107448;23;20568;-61
2022/05/30 01:13:14;;;;;;;9.13;3.50;;;;;;;9.37;100.00;100323.00;6107613;23;20369;-61
2022/05/30 01:15:59;;;;;;;10.38;3.85;;;;;;;9.34;100.00;100314.22;6118588;23;20084;-61
2022/05/30 01:18:55;;;;;;;5.65;3.83;;;;;;;9.43;100.00;100316.78;6154840;23;20114;-60
2022/05/30 01:21:55;;;;;;;7.28;3.60;;;;;;;9.49;100.00;100319.38;6184898;23;20489;-62
2022/05/30 01:24:43;;;;;;;12.32;4.20;;;;;;;9.31;100.00;100296.56;6204099;23;20051;-63
2022/05/30 01:28:04;;;;;;;7.55;3.45;;;;;;;9.38;100.00;100324.75;6216986;23;20031;-62
2022/05/30 01:30:53;;;;;;;6.38;3.22;;;;;;;9.35;100.00;100319.47;6216253;23;20026;-62
2022/05/30 01:33:38;;;;;;;7.25;3.55;;;;;;;9.35;100.00;100322.13;6216305;23;20102;-62
2022/05/30 01:36:26;;;;;;;7.10;3.20;;;;;;;9.21;100.00;100300.19;6204929;23;20027;-63
2022/05/30 01:39:11;;;;;;;6.45;3.60;;;;;;;9.33;100.00;100336.25;6208816;23;20050;-61
2022/05/30 01:42:06;;;;;;;4.15;3.30;;;;;;;9.23;100.00;100331.91;6187918;23;20655;-59
2022/05/30 01:44:50;;;;;;;6.25;3.03;;;;;;;9.25;100.00;100340.72;6218991;23;20082;-61
2022/05/30 01:47:35;;;;;;;7.53;3.15;;;;;;;9.27;100.00;100333.66;6240524;23;20541;-60
2022/05/30 01:50:27;;;;;;;8.95;3.53;;;;;;;9.32;100.00;100348.63;6163858;23;20104;-61
2022/05/30 01:53:14;;;;;;;6.05;3.50;;;;;;;9.36;100.00;100352.13;6218586;23;20082;-61
2022/05/30 01:56:33;;;;;;;8.73;3.60;;;;;;;9.32;100.00;100355.69;6220218;23;20031;-61
2022/05/30 01:59:19;;;;;;;5.88;3.70;;;;;;;9.27;100.00;100350.41;6220236;23;20423;-61
2022/05/30 02:02:22;;;;;;;6.38;3.78;;;;;;;9.20;100.00;100355.75;6233695;23;20405;-61
2022/05/30 02:05:07;;;;;;;6.28;3.65;;;;;;;9.24;100.00;100352.19;6228394;23;20077;-61
2022/05/30 02:07:52;;;;;;;8.40;3.58;;;;;;;9.25;100.00;100357.47;6218160;23;20031;-61
2022/05/30 02:10:43;;;;;;;5.40;3.60;;;;;;;9.18;100.00;100347.81;6225667;23;20035;-61
2022/05/30 02:13:29;;;;;;;8.05;4.18;;;;;;;9.21;100.00;100357.50;6227789;23;20073;-61
2022/05/30 02:19:43;;;;;;;9.00;4.15;;;;;;;9.24;100.00;100361.03;6229053;23;20490;-62
2022/05/30 02:22:29;;;;;;;8.75;4.13;;;;;;;9.23;100.00;100364.53;6239248;23;20026;-60
2022/05/30 02:25:15;;;;;;;6.88;3.92;;;;;;;9.28;100.00;100373.34;6218205;23;20469;-61
2022/05/30 02:27:59;;;;;;;8.13;4.22;;;;;;;9.23;100.00;100382.19;6239414;23;20035;-62
2022/05/30 02:30:44;;;;;;;9.02;4.32;;;;;;;9.25;100.00;100375.13;6225527;23;20355;-62
2022/05/30 02:36:40;;;;;;;6.93;3.67;;;;;;;9.19;100.00;100343.41;6213763;23;20496;-61
2022/05/30 02:39:29;;;;;;;6.05;4.03;;;;;;;9.26;100.00;100350.44;6246205;23;20070;-67
2022/05/30 02:42:14;;;;;;;6.78;3.90;;;;;;;9.48;100.00;100371.47;6247587;23;20497;-60
2022/05/30 02:44:59;;;;;;;8.98;3.88;;;;;;;9.60;100.00;100386.38;6243982;23;20098;-62
2022/05/30 02:47:43;;;;;;;8.15;3.80;;;;;;;9.61;100.00;100385.47;6217008;23;20178;-62
2022/05/30 02:50:32;;;;;;;8.70;4.18;;;;;;;9.66;100.00;100401.34;6175764;23;20031;-63
2022/05/30 02:53:18;;;;;;;8.13;4.13;;;;;;;9.49;100.00;100367.03;6195407;23;20031;-68
2022/05/30 02:56:25;;;;;;;8.82;4.50;;;;;;;9.65;100.00;100397.81;6239747;23;20055;-61
2022/05/30 02:59:09;;;;;;;7.90;4.30;;;;;;;9.67;100.00;100398.69;6227216;23;20071;-59
2022/05/30 03:02:00;;;;;;;8.73;4.45;;;;;;;9.74;100.00;100405.72;6224645;23;20078;-62
2022/05/30 03:04:45;;;;;;;12.20;4.40;;;;;;;9.78;100.00;100406.56;6227159;23;20107;-64
2022/05/30 03:07:30;;;;;;;8.88;4.15;;;;;;;9.76;100.00;100376.59;6203624;23;20051;-64
2022/05/30 03:10:16;;;;;;;6.35;4.07;;;;;;;10.12;100.00;100410.78;6192700;23;20081;-61
2022/05/30 03:13:09;;;;;;;10.15;3.85;;;;;;;10.22;100.00;100420.41;6194229;23;20031;-64
2022/05/30 03:15:55;;;;;;;14.52;4.60;;;;;;;10.32;100.00;100416.78;6223963;23;20067;-61
2022/05/30 03:18:39;;;;;;;7.53;3.97;;;;;;;10.27;100.00;100395.63;6226081;23;20065;-62
2022/05/30 03:21:23;;;;;;;8.70;3.65;;;;;;;10.54;100.00;100424.53;6214757;23;20159;-64
2022/05/30 03:24:08;;;;;;;13.18;4.43;;;;;;;10.63;100.00;100426.19;6226566;23;20031;-64
2022/05/30 03:26:57;;;;;;;12.75;4.85;;;;;;;10.65;100.00;100427.97;6239402;23;20363;-61
2022/05/30 03:29:41;;;;;;;10.45;4.15;;;;;;;10.62;100.00;100432.41;6225583;23;20027;-67
2022/05/30 03:32:26;;;;;;;7.60;4.35;;;;;;;10.51;100.00;100408.66;6228758;23;20023;-62
2022/05/30 03:35:12;;;;;;;8.80;4.78;;;;;;;10.71;100.00;100429.66;6205413;23;20071;-61
2022/05/30 03:38:00;;;;;;;7.40;4.25;;;;;;;10.74;100.00;100425.22;6218641;23;20054;-60
2022/05/30 03:41:13;;;;;;;10.00;4.78;;;;;;;10.85;100.00;100438.34;6119237;23;20040;-62
2022/05/30 03:44:06;;;;;;;11.07;4.43;;;;;;;10.95;100.00;100448.84;6108331;23;20081;-63
2022/05/30 03:46:50;;;;;;;11.75;4.78;;;;;;;10.85;100.00;100410.06;6126855;23;20152;-68
2022/05/30 03:49:36;;;;;;;11.13;4.97;;;;;;;11.09;100.00;100448.72;6098821;23;20092;-60
2022/05/30 03:52:21;;;;;;;14.07;4.70;;;;;;;11.02;100.00;100420.47;6126827;23;20157;-62
2022/05/30 03:55:11;;;;;;;8.60;5.15;;;;;;;11.17;100.00;100442.44;6128941;23;20117;-62
2022/05/30 03:57:57;;;;;;;9.73;4.70;;;;;;;11.39;100.00;100459.84;6098417;23;20562;-63
2022/05/30 04:00:43;;;;;;;9.95;4.85;;;;;;;11.47;100.00;100465.06;6089930;23;20077;-62
2022/05/30 04:03:29;;;;;;;10.52;5.15;;;;;;;11.32;100.00;100428.94;6029154;23;20049;-61
2022/05/30 04:06:14;;;;;;;17.65;5.25;;;;;;;11.64;100.00;100465.75;6096864;23;20491;-61
2022/05/30 04:09:02;;;;;;;9.68;4.47;;;;;;;11.74;100.00;100475.34;6069165;23;20565;-60
2022/05/30 04:12:05;;;;;;;11.07;5.07;;;;;;;11.76;100.00;100485.09;6099818;23;20044;-64
2022/05/30 04:15:23;;;;;;;9.95;4.72;;;;;;;11.85;100.00;100479.63;6046397;23;20034;-65
2022/05/30 04:18:08;;;;;;;13.25;4.80;;;;;;;11.92;100.00;100475.13;6113758;23;20064;-64
2022/05/30 04:20:53;;;;;;;11.27;4.95;;;;;;;11.98;100.00;100467.03;6118833;23;20049;-65
2022/05/30 04:23:41;;;;;;;13.27;4.65;;;;;;;12.17;100.00;100492.44;6107755;23;20080;-65
2022/05/30 04:26:27;;;;;;;14.18;4.97;;;;;;;12.23;100.00;100490.56;6106828;23;20076;-63
2022/05/30 04:29:11;;;;;;;7.05;4.70;;;;;;;12.29;100.00;100498.47;6128509;23;20547;-62
2022/05/30 04:32:19;;;;;;;14.50;4.95;;;;;;;12.43;100.00;100506.25;6073965;23;20504;-61
2022/05/30 04:35:05;;;;;;;13.30;4.93;;;;;;;12.52;100.00;100508.75;6066567;23;20038;-62
2022/05/30 04:37:50;;;;;;;10.45;4.28;;;;;;;12.62;100.00;100508.56;6078783;23;20085;-64
2022/05/30 04:40:41;;;;;;;9.93;4.85;;;;;;;12.70;100.00;100514.63;6089360;23;20133;-62
2022/05/30 04:43:38;;;;;;;15.60;5.50;;;;;;;12.79;100.00;100508.28;6078634;23;20030;-61
2022/05/30 04:46:40;;;;;;;11.05;4.60;;;;;;;12.75;100.00;100495.94;6080448;23;20061;-63
2022/05/30 04:49:26;;;;;;;;;;;;;;;12.96;100.00;100506.22;6099327;23;20591;-61
2022/05/30 04:52:10;;;;;;;6.13;3.40;;;;;;;13.02;100.00;100517.66;6104939;23;20302;-60
2022/05/30 04:54:55;;;;;;;12.45;3.80;;;;;;;13.12;100.00;100513.94;6127918;23;20105;-61
2022/05/30 04:57:51;;;;;;;10.63;3.60;;;;;;;13.21;100.00;100508.44;6077400;23;20101;-62
2022/05/30 05:00:58;;;;;;;6.80;2.85;;;;;;;13.14;100.00;100473.97;6113801;23;20265;-60
2022/05/30 05:03:44;;;;;;;8.13;3.05;;;;;;;13.43;100.00;100504.47;6097256;23;20531;-68
2022/05/30 05:06:29;;;;;;;8.18;3.25;;;;;;;13.49;100.00;100498.13;6107321;23;20504;-61
2022/05/30 05:09:16;;;;;;;9.40;3.53;;;;;;;13.61;100.00;100497.88;6168683;23;20028;-63
2022/05/30 05:12:21;;;;;;;6.35;2.47;;;;;;;13.61;100.00;100489.88;6218293;23;20036;-68
2022/05/30 05:15:23;;;;;;;6.72;2.40;;;;;;;13.81;100.00;100501.00;6220053;23;20398;-61
2022/05/30 05:18:28;;;;;;;6.35;2.17;;;;;;;13.93;100.00;100506.06;6196904;23;20028;-62
2022/05/30 05:21:23;;;;;;;8.05;1.92;;;;;;;14.04;100.00;100498.69;6208601;23;20146;-61
2022/05/30 05:24:09;;;;;;;10.43;2.60;;;;;;;14.05;100.00;100497.81;6218086;23;20032;-63
2022/05/30 05:27:25;;;;;;;4.03;2.03;;;;;;;14.23;100.00;100497.41;6154909;23;20167;-62
2022/05/30 05:30:11;;;;;;;11.82;1.95;;;;;;;14.15;100.00;100480.66;6147387;23;20091;-63
2022/05/30 05:32:59;;;;;;;8.05;1.83;;;;;;;14.41;100.00;100513.00;6126584;23;20546;-62
2022/05/30 05:35:46;;;;;;;5.20;1.60;;;;;;;14.51;100.00;100506.50;6147289;23;20353;-62
2022/05/30 05:38:30;;;;;;;5.32;1.40;;;;;;;14.45;100.00;100477.31;6148063;23;20171;-62
2022/05/30 05:41:30;;;;;;;4.65;1.10;;;;;;;14.70;100.00;100514.94;6135443;23;20634;-61
2022/05/30 05:44:36;;;;;;;7.55;1.20;;;;;;;14.66;100.00;100494.56;6123834;23;20566;-61
2022/05/30 05:47:21;;;;;;;3.50;1.20;;;;;;;14.89;100.00;100509.13;6125703;23;20518;-61
2022/05/30 05:50:06;;;;;;;6.13;1.42;;;;;;;14.93;100.00;100504.56;6146676;23;20048;-61
2022/05/30 05:52:53;;;;;;;7.15;1.17;;;;;;;15.00;100.00;100500.81;6156926;23;20044;-61
2022/05/30 05:55:43;;;;;;;5.68;1.10;;;;;;;15.00;100.00;100492.81;6135575;23;20032;-61
2022/05/30 05:58:28;;;;;;;4.65;0.93;;;;;;;14.99;100.00;100483.06;6144468;23;20029;-63
2022/05/30 06:01:20;;;;;;;3.00;1.10;;;;;;;15.23;100.00;100512.63;6162141;23;20056;-61
2022/05/30 06:04:07;;;;;;;5.03;1.02;;;;;;;15.28;100.00;100501.84;6226812;23;20434;-62
2022/05/30 06:07:11;;;;;;;2.67;1.02;;;;;;;15.23;100.00;100485.91;6239274;23;20555;-62
2022/05/30 06:10:14;;;;;;;2.75;1.00;;;;;;;15.37;100.00;100509.63;6228018;23;20062;-61
2022/05/30 06:13:08;;;;;;;1.55;0.90;;;;;;;15.39;100.00;100503.31;6216303;23;20472;-63
2022/05/30 06:15:53;;;;;;;4.85;1.40;;;;;;;15.46;100.00;100507.56;6205901;23;20044;-61
2022/05/30 06:18:55;;;;;;;5.43;1.40;;;;;;;15.53;100.00;100518.97;6193607;23;20042;-61
2022/05/30 06:21:40;;;;;;;5.95;0.90;;;;;;;15.43;100.00;100501.44;6250079;23;20378;-60
2022/05/30 06:24:26;;;;;;;4.93;1.05;;;;;;;15.54;100.00;100483.31;6227719;23;20027;-61
2022/05/30 06:27:34;;;;;;;3.22;0.82;;;;;;;15.62;100.00;100490.19;6218693;23;20107;-61
2022/05/30 06:30:54;;;;;;;4.57;0.90;;;;;;;15.82;100.00;100519.88;6143357;23;20377;-62
2022/05/30 06:33:39;;;;;;;2.10;0.80;;;;;;;15.85;100.00;100517.13;6145039;23;20092;-69
2022/05/30 06:36:26;;;;;;;3.28;0.70;;;;;;;15.86;100.00;100518.88;6135656;23;20032;-62
2022/05/30 06:39:11;;;;;;;2.97;1.00;;;;;;;15.82;100.00;100501.16;6123560;23;20041;-62
2022/05/30 06:42:02;;;;;;;3.55;1.10;;;;;;;15.84;100.00;100493.09;6105611;23;20150;-63
2022/05/30 06:45:03;;;;;;;2.13;0.75;;;;;;;16.02;100.00;100520.19;6146883;23;20032;-61
2022/05/30 06:48:10;;;;;;;2.60;0.93;;;;;;;16.09;100.00;100528.88;6147527;23;20063;-61
2022/05/30 06:51:16;;;;;;;5.35;1.02;;;;;;;16.18;100.00;100528.63;6158538;23;20113;-61
2022/05/30 06:54:01;;;;;;;2.72;0.80;;;;;;;16.30;100.00;100531.78;6154701;23;20076;-61
2022/05/30 06:59:57;;;;;;;3.40;0.80;;;;;;;16.44;100.00;100540.31;6098826;23;20383;-62
2022/05/30 07:02:44;;;;;;;1.65;0.80;;;;;;;16.54;100.00;100530.19;6067828;23;20045;-64
2022/05/30 07:06:01;;;;;;;3.00;0.75;;;;;;;16.64;100.00;100505.75;6128403;23;20454;-61
2022/05/30 07:09:06;;;;;;;3.88;1.27;;;;;;;16.98;100.00;100535.81;6099410;23;20088;-61
2022/05/30 07:12:01;;;;;;;3.47;1.17;;;;;;;17.12;100.00;100513.91;6110064;23;20377;-62
2022/05/30 07:14:46;;;;;;;2.55;1.20;;;;;;;17.52;100.00;100515.16;6098218;23;20045;-61
2022/05/30 07:17:31;;;;;;;5.20;1.10;;;;;;;18.20;100.00;100542.13;6075688;23;20032;-62
2022/05/30 07:20:16;;;;;;;5.78;1.08;;;;;;;18.60;100.00;100528.91;6108459;23;20081;-63
2022/05/30 07:23:19;;;;;;;6.53;1.27;;;;;;;19.19;100.00;100540.69;6118781;23;20098;-61
2022/05/30 07:26:33;;;;;;;3.35;1.15;;;;;;;19.79;100.00;100542.56;6111966;23;20100;-61
2022/05/30 07:29:36;;;;;;;3.22;1.00;;;;;;;20.23;100.00;100547.69;6098504;23;20037;-64
2022/05/30 07:32:40;;;;;;;3.97;1.20;;;;;;;20.54;100.00;100531.81;6118003;23;20501;-60
2022/05/30 07:35:44;;;;;;;2.45;1.20;;;;;;;20.78;100.00;100552.19;6131259;23;20029;-60
2022/05/30 07:38:56;;;;;;;3.10;1.00;;;;;;;21.35;97.63;100553.81;6131518;23;20167;-61
2022/05/30 07:42:00;;;;;;;4.03;1.60;;;;;;;21.32;89.30;100543.19;6191074;23;20455;-64
2022/05/30 07:44:51;;;;;;;2.63;1.20;;;;;;;21.56;87.26;100560.81;6196240;23;20031;-60
2022/05/30 07:47:48;;;;;;;2.67;1.10;;;;;;;22.29;84.30;100566.72;6185937;23;20443;-61
2022/05/30 07:50:41;;;;;;;2.53;1.33;;;;;;;22.61;81.15;100548.75;6215549;23;20116;-62
2022/05/30 07:53:45;;;;;;;4.38;1.35;;;;;;;23.09;80.09;100568.44;6208123;23;20067;-65
2022/05/30 07:56:40;;;;;;;7.18;1.05;;;;;;;23.53;77.28;100573.97;6164686;23;20166;-62
2022/05/30 07:59:24;;;;;;;4.53;1.40;;;;;;;24.29;73.60;100577.28;6184867;22;20235;-61
2022/05/30 08:02:08;;;;;;;16.52;2.28;;;;;;;25.18;70.67;100553.31;6249133;23;20359;-62
2022/05/30 08:04:55;;;;;;;3.22;0.90;;;;;;;25.14;64.79;100587.06;6226246;23;20077;-62
2022/05/30 08:07:58;;;;;;;2.63;0.90;;;;;;;24.64;67.91;100581.38;6247984;23;20030;-62
2022/05/30 08:10:48;;;;;;;2.22;1.13;;;;;;;24.83;68.62;100575.63;6226256;23;20081;-62
2022/05/30 08:13:34;;;;;;;2.38;1.00;;;;;;;25.64;65.71;100584.53;6215733;23;20058;-61
2022/05/30 08:16:23;;;;;;;1.83;0.88;;;;;;;26.49;63.91;100575.81;6172279;23;20109;-61
2022/05/30 08:19:09;;;;;;;1.45;0.70;;;;;;;27.13;60.00;100594.63;6226311;23;20031;-61
2022/05/30 08:22:02;;;;;;;5.63;1.10;;;;;;;27.01;54.58;100600.97;6215604;23;20039;-62
2022/05/30 08:24:47;;;;;;;1.23;0.80;;;;;;;27.75;52.88;100596.16;6225164;23;20362;-64
2022/05/30 08:27:34;;;;;;;0.82;0.80;;;;;;;26.02;55.76;100600.09;6194810;23;20027;-62
2022/05/30 08:30:21;;;;;;;1.52;0.88;;;;;;;26.56;55.67;100609.72;6191840;23;20034;-62
2022/05/30 08:33:25;;;;;;;4.45;0.90;;;;;;;26.94;52.78;100616.03;6213123;23;20082;-67
2022/05/30 08:36:25;;;;;;;2.78;0.60;;;;;;;27.29;49.19;100620.59;6238136;23;20524;-67
2022/05/30 08:42:12;;;;;;;3.17;0.68;;;;;;;29.83;43.99;100601.72;6215001;23;20111;-62
2022/05/30 08:45:29;;;;;;;2.78;0.93;;;;;;;30.65;38.53;100621.69;6125585;23;20551;-61
2022/05/30 08:48:45;;;;;;;1.63;0.60;;;;;;;31.22;37.18;100611.00;6114011;23;20069;-62
2022/05/30 08:51:59;;;;;;;2.63;1.08;;;;;;;30.93;38.30;100607.28;6104240;23;20444;-65
2022/05/30 08:55:18;;;;;;;3.03;0.70;;;;;;;30.84;41.57;100634.69;6071953;23;20029;-63
2022/05/30 08:58:13;;;;;;;4.13;0.82;;;;;;;30.23;38.94;100628.25;6123093;23;20032;-62
2022/05/30 09:01:06;;;;;;;2.67;0.90;;;;;;;31.25;35.56;100621.69;6084231;23;20097;-62
2022/05/30 09:04:21;;;;;;;3.15;1.00;;;;;;;31.72;34.56;100642.84;6096237;23;20032;-63
2022/05/30 09:07:20;;;;;;;3.72;0.60;;;;;;;31.85;29.99;100635.25;6076126;23;20033;-63
2022/05/30 09:10:39;;;;;;;4.35;0.77;;;;;;;32.46;30.99;100624.75;6074925;23;20033;-63
2022/05/30 09:13:34;;;;;;;3.53;0.70;;;;;;;32.15;28.22;100635.06;6065848;23;20368;-62
2022/05/30 09:16:38;;;;;;;4.82;0.80;;;;;;;31.17;30.15;100635.19;6071934;23;20125;-63
2022/05/30 09:19:28;;;;;;;1.90;0.70;;;;;;;30.51;30.92;100616.59;6072857;23;20053;-62
2022/05/30 09:22:14;;;;;;;3.25;0.80;;;;;;;32.37;28.43;100632.03;6191959;23;20044;-62
2022/05/30 09:28:45;;;;;;;2.28;0.70;;;;;;;32.97;29.77;100619.69;6206988;23;20027;-61
2022/05/30 09:32:14;;;;;;;1.15;0.70;;;;;;;34.05;27.15;100627.78;6217740;23;20062;-63
2022/05/30 09:35:30;;;;;;;2.35;0.70;;;;;;;35.50;23.87;100629.56;6165568;23;20031;-65
2022/05/30 09:38:41;;;;;;;4.88;0.80;;;;;;;34.62;27.03;100626.34;6215502;23;20027;-69
2022/05/30 09:42:01;;;;;;;2.30;0.80;;;;;;;32.62;27.15;100625.00;6083897;23;20029;-64
2022/05/30 09:44:52;;;;;;;0.77;0.60;;;;;;;32.21;27.25;100609.78;6095982;23;20871;-62
2022/05/30 09:48:13;;;;;;;2.65;0.70;;;;;;;32.63;26.72;100630.34;6080909;23;20101;-65
2022/05/30 09:51:01;;;;;;;1.33;0.63;;;;;;;32.47;27.08;100596.31;6086800;23;20029;-64
2022/05/30 09:53:51;;;;;;;3.47;0.80;;;;;;;33.85;26.94;100606.13;6065696;23;20081;-61
2022/05/30 09:56:42;;;;;;;4.95;0.90;;;;;;;32.35;29.35;100616.72;6067912;23;20025;-63
2022/05/30 09:59:37;;;;;;;2.95;0.70;;;;;;;31.04;33.13;100607.19;6097334;23;20453;-63
2022/05/30 10:02:32;;;;;;;2.25;0.77;;;;;;;32.70;30.42;100614.13;6097776;23;20073;-61
2022/05/30 10:05:20;;;;;;;0.70;0.60;;;;;;;33.71;27.26;100618.50;6093904;23;20034;-68
2022/05/30 10:08:20;;;;;;;1.80;0.80;;;;;;;34.01;26.33;100622.78;6096020;23;20073;-62
2022/05/30 10:11:34;;;;;;;2.30;0.73;;;;;;;35.03;27.33;100628.31;6097152;23;20029;-63
2022/05/30 10:14:40;;;;;;;4.13;0.90;;;;;;;33.61;26.38;100628.72;6086190;23;20077;-63
2022/05/30 10:17:33;;;;;;;1.27;0.77;;;;;;;33.05;26.00;100615.16;6134415;23;20103;-60
2022/05/30 10:21:03;;;;;;;4.23;0.70;;;;;;;32.62;26.42;100616.75;6192504;23;20082;-62
2022/05/30 10:28:16;;;;;;;3.47;0.80;;;;;;;33.99;26.72;100600.03;6096326;23;20513;-63
2022/05/30 10:31:28;;;;;;;2.65;0.80;;;;;;;35.39;23.41;100599.53;6089130;23;20393;-62
2022/05/30 10:34:22;;;;;;;2.78;0.93;;;;;;;35.31;24.03;100600.34;6067136;23;20089;-61
2022/05/30 10:37:14;;;;;;;3.35;0.70;;;;;;;35.40;23.52;100590.22;6097576;23;20044;-62
2022/05/30 10:40:15;;;;;;;1.25;0.63;;;;;;;35.91;24.95;100595.50;6087909;23;20032;-61
2022/05/30 10:43:09;;;;;;;2.80;0.70;;;;;;;35.30;24.57;100590.38;6076097;23;20233;-64
2022/05/30 10:46:04;;;;;;;1.48;0.77;;;;;;;34.63;25.82;100595.88;6095734;23;20117;-68
2022/05/30 10:49:08;;;;;;;3.17;0.82;;;;;;;32.38;29.18;100592.56;6067111;23;20384;-63
2022/05/30 10:52:12;;;;;;;2.03;0.68;;;;;;;32.75;31.36;100582.44;6076292;23;20045;-62
2022/05/30 10:55:18;;;;;;;4.15;0.80;;;;;;;30.53;30.74;100587.19;6097691;23;20487;-62
2022/05/30 10:58:26;;;;;;;1.92;0.80;;;;;;;29.60;33.89;100573.63;6076766;23;20034;-64
2022/05/30 11:01:24;;;;;;;2.20;0.73;;;;;;;29.09;32.96;100564.31;6163542;23;20031;-61
2022/05/30 11:04:30;;;;;;;3.30;0.80;;;;;;;29.59;34.50;100560.94;6217293;23;20055;-68
2022/05/30 11:07:27;;;;;;;1.48;0.70;;;;;;;30.91;33.30;100570.06;6207319;23;20031;-66
2022/05/30 11:10:17;;;;;;;2.70;0.60;;;;;;;31.01;29.97;100541.69;6217761;23;20027;-62
2022/05/30 11:13:27;;;;;;;2.63;0.80;;;;;;;32.02;31.00;100562.25;6217619;23;20043;-63
2022/05/30 11:16:46;;;;;;;;;;;;;;;32.54;31.60;100561.69;6187897;23;20032;-61
2022/05/30 11:20:07;;;;;;;2.28;0.75;;;;;;;31.65;28.97;100531.97;6218348;23;19981;-63
2022/05/30 11:23:07;;;;;;;0.80;0.60;;;;;;;29.82;32.25;100540.66;6186330;23;20043;-63
2022/05/30 11:26:26;;;;;;;3.08;0.70;;;;;;;29.08;34.63;100533.38;6218779;23;20031;-60
2022/05/30 11:29:14;;;;;;;3.78;0.80;;;;;;;29.31;35.67;100526.00;6203638;23;20042;-63
2022/05/30 11:32:26;;;;;;;4.63;0.80;;;;;;;29.15;35.93;100511.91;6185991;23;20027;-63
2022/05/30 11:35:19;;;;;;;3.67;0.70;;;;;;;28.84;37.29;100531.81;6206803;23;20042;-66
2022/05/30 11:38:29;;;;;;;3.97;1.10;;;;;;;27.55;38.76;100513.22;6218982;23;20098;-61
2022/05/30 11:41:51;;;;;;;2.97;0.68;;;;;;;27.09;41.05;100514.97;6207454;23;20038;-64
2022/05/30 11:44:50;;;;;;;1.05;0.60;;;;;;;27.39;39.22;100512.69;6208116;23;20070;-63
2022/05/30 11:48:14;;;;;;;2.65;0.55;;;;;;;27.33;39.18;100502.25;6217457;23;20371;-63
2022/05/30 11:51:25;;;;;;;2.20;0.60;;;;;;;27.30;39.75;100499.78;6055618;23;20146;-63
2022/05/30 11:54:18;;;;;;;1.75;0.70;;;;;;;26.47;38.76;100502.47;6126574;23;20029;-62
2022/05/30 11:57:15;;;;;;;2.03;0.75;;;;;;;26.92;40.59;100500.91;6126496;23;20033;-63
2022/05/30 12:00:04;;;;;;;19.65;1.25;;;;;;;26.32;39.65;100497.25;6125364;23;20096;-62
2022/05/30 12:03:29;;;;;;;2.53;0.60;;;;;;;26.36;40.84;100493.34;6114431;23;20048;-66
2022/05/30 12:06:32;;;;;;;2.95;0.60;;;;;;;26.98;41.73;100497.72;6114247;23;20064;-62
2022/05/30 12:09:36;;;;;;;2.60;0.60;;;;;;;27.08;39.17;100482.41;6124808;23;20037;-67
2022/05/30 12:12:38;;;;;;;3.03;0.60;;;;;;;27.10;38.66;100491.34;6126652;23;20345;-64
2022/05/30 12:15:57;;;;;;;3.33;0.90;;;;;;;26.88;41.42;100472.16;6105400;23;20036;-64
2022/05/30 12:25:00;;;;;;;62.63;11.45;;;;;;;27.45;45.88;100481.38;6128662;23;20033;-64
2022/05/30 12:27:46;;;;;;;4.15;1.10;;;;;;;27.51;39.75;100470.84;6218902;23;20031;-64
2022/05/30 12:30:33;;;;;;;0.85;0.60;;;;;;;26.22;40.37;100444.53;6209708;23;20466;-64
2022/05/30 12:33:27;;;;;;;0.88;0.50;;;;;;;26.28;41.35;100482.16;6220107;23;20459;-64
2022/05/30 12:36:16;;;;;;;2.42;0.50;;;;;;;25.36;42.14;100476.03;6163156;23;20103;-62
2022/05/30 12:39:37;;;;;;;2.75;0.60;;;;;;;24.78;44.57;100452.97;6185786;23;20539;-62
2022/05/30 12:42:33;;;;;;;1.38;0.60;;;;;;;25.13;44.73;100470.44;6208636;23;20144;-64
2022/05/30 12:45:21;;;;;;;2.97;0.60;;;;;;;25.21;46.04;100468.94;6195305;23;20031;-63
2022/05/30 12:48:18;;;;;;;1.88;0.60;;;;;;;25.80;45.89;100452.06;6207543;23;20108;-62
2022/05/30 12:51:08;;;;;;;1.33;0.60;;;;;;;25.64;44.81;100469.56;6185088;23;20106;-69
2022/05/30 12:53:58;;;;;;;0.95;0.65;;;;;;;25.04;47.58;100466.50;6219997;23;20075;-62
2022/05/30 12:56:44;;;;;;;4.70;0.60;;;;;;;24.61;51.23;100466.78;6176523;23;20031;-61
2022/05/30 12:59:34;;;;;;;2.03;0.50;;;;;;;24.88;52.11;100460.38;6176157;23;20075;-62
2022/05/30 13:02:47;;;;;;;3.65;0.90;;;;;;;25.47;52.51;100449.00;6219721;23;20040;-63
2022/05/30 13:05:44;;;;;;;2.05;0.80;;;;;;;25.70;50.23;100461.84;6219875;23;20155;-63
2022/05/30 13:08:52;;;;;;;1.48;0.60;;;;;;;26.05;50.51;100456.63;6197258;23;20244;-63
2022/05/30 13:11:52;;;;;;;2.40;0.75;;;;;;;26.23;50.93;100451.72;6196482;23;20031;-63
2022/05/30 13:14:39;;;;;;;2.53;0.93;;;;;;;26.38;49.12;100462.31;6194663;23;20130;-65
2022/05/30 13:17:37;;;;;;;1.38;0.80;;;;;;;26.13;48.40;100464.22;5099668;27;1378143;-63
2022/05/30 13:20:43;;;;;;;9.10;1.50;;;;;;;26.06;49.26;100428.47;5096695;28;20414;-63
2022/05/30 13:23:34;;;;;;;9.63;1.88;;;;;;;26.27;49.02;100470.41;5126720;28;20293;-64
2022/05/30 13:26:18;;;;;;;5.03;1.20;;;;;;;26.13;49.99;100437.03;5109935;28;20058;-63
2022/05/30 13:29:03;;;;;;;5.22;1.15;;;;;;;26.35;48.34;100461.69;5126519;28;20054;-63
2022/05/30 13:31:49;;;;;;;4.30;0.73;;;;;;;26.24;47.11;100467.03;5124770;28;20054;-64
2022/05/30 13:34:34;;;;;;;3.00;1.08;;;;;;;26.19;46.15;100456.50;5110940;28;20415;-63
2022/05/30 13:37:31;;;;;;;1.25;0.90;;;;;;;26.22;47.58;100464.44;5110094;28;20286;-64
2022/05/30 13:40:24;;;;;;;1.83;0.70;;;;;;;25.81;47.39;100461.97;5108807;28;20119;-65
2022/05/30 13:43:19;;;;;;;3.80;0.93;;;;;;;25.61;50.36;100459.78;5125943;28;20553;-63
2022/05/30 13:46:03;;;;;;;5.00;1.50;;;;;;;25.50;48.95;100465.09;5126063;28;20126;-63
2022/05/30 13:48:47;;;;;;;2.90;0.68;;;;;;;24.40;53.93;100470.88;5123825;28;20051;-71
2022/05/30 13:51:36;;;;;;;3.33;0.70;;;;;;;24.28;55.07;100464.41;5110292;28;20067;-64
2022/05/30 13:54:24;;;;;;;7.82;1.35;;;;;;;24.49;56.68;100462.13;5108836;28;20171;-63
2022/05/30 13:57:11;;;;;;;15.85;3.50;;;;;;;24.75;57.49;100459.47;5125635;28;20115;-64